sensor_id;sensor_type;location;lat;lon;timestamp;P1;durP1;ratioP1;P2;durP2;ratioP2
7657;SDS011;8462;53.156;8.220;2023-04-03T00:00:49;4.57;;;1.50;;
7657;SDS011;8462;53.156;8.220;2023-04-03T00:03:16;6.27;;;1.67;;
7657;SDS011;8462;53.156;8.220;2023-04-03T00:05:45;2.67;;;0.93;;
7657;SDS011;8462;53.156;8.220;2023-04-03T00:08:12;2.17;;;1.20;;
7657;SDS011;8462;53.156;8.220;2023-04-03T00:10:39;2.10;;;1.07;;
7657;SDS011;8462;53.156;8.220;2023-04-03T00:13:06;3.80;;;1.50;;
7657;SDS011;8462;53.156;8.220;2023-04-03T00:15:34;2.57;;;1.23;;
7657;SDS011;8462;53.156;8.220;2023-04-03T00:18:03;2.83;;;1.13;;
7657;SDS011;8462;53.156;8.220;2023-04-03T00:20:30;4.37;;;1.37;;
7657;SDS011;8462;53.156;8.220;2023-04-03T00:22:58;3.60;;;1.17;;
7657;SDS011;8462;53.156;8.220;2023-04-03T00:25:25;2.17;;;1.00;;
7657;SDS011;8462;53.156;8.220;2023-04-03T00:27:52;2.47;;;1.20;;
7657;SDS011;8462;53.156;8.220;2023-04-03T00:30:20;2.20;;;1.00;;
7657;SDS011;8462;53.156;8.220;2023-04-03T00:32:49;3.87;;;1.67;;
7657;SDS011;8462;53.156;8.220;2023-04-03T00:35:17;5.37;;;1.50;;
7657;SDS011;8462;53.156;8.220;2023-04-03T00:37:45;4.80;;;1.33;;
7657;SDS011;8462;53.156;8.220;2023-04-03T00:40:14;3.57;;;1.20;;
7657;SDS011;8462;53.156;8.220;2023-04-03T00:42:42;1.43;;;1.27;;
7657;SDS011;8462;53.156;8.220;2023-04-03T00:45:24;1.80;;;1.30;;
7657;SDS011;8462;53.156;8.220;2023-04-03T00:47:56;2.97;;;1.33;;
7657;SDS011;8462;53.156;8.220;2023-04-03T00:50:25;2.40;;;1.47;;
7657;SDS011;8462;53.156;8.220;2023-04-03T00:52:53;2.60;;;1.50;;
7657;SDS011;8462;53.156;8.220;2023-04-03T00:55:22;1.97;;;1.70;;
7657;SDS011;8462;53.156;8.220;2023-04-03T00:57:50;7.70;;;1.80;;
7657;SDS011;8462;53.156;8.220;2023-04-03T01:00:19;4.50;;;1.53;;
7657;SDS011;8462;53.156;8.220;2023-04-03T01:02:47;1.90;;;1.17;;
7657;SDS011;8462;53.156;8.220;2023-04-03T01:05:15;2.63;;;1.27;;
7657;SDS011;8462;53.156;8.220;2023-04-03T01:07:43;3.17;;;1.50;;
7657;SDS011;8462;53.156;8.220;2023-04-03T01:10:12;2.03;;;1.13;;
7657;SDS011;8462;53.156;8.220;2023-04-03T01:12:43;3.27;;;1.50;;
7657;SDS011;8462;53.156;8.220;2023-04-03T01:15:12;10.33;;;2.37;;
7657;SDS011;8462;53.156;8.220;2023-04-03T01:17:41;4.13;;;1.30;;
7657;SDS011;8462;53.156;8.220;2023-04-03T01:23:22;2.23;;;1.37;;
7657;SDS011;8462;53.156;8.220;2023-04-03T01:25:56;7.70;;;1.90;;
7657;SDS011;8462;53.156;8.220;2023-04-03T01:28:26;2.00;;;1.20;;
7657;SDS011;8462;53.156;8.220;2023-04-03T01:30:56;3.73;;;1.60;;
7657;SDS011;8462;53.156;8.220;2023-04-03T01:33:32;2.63;;;1.53;;
7657;SDS011;8462;53.156;8.220;2023-04-03T01:35:59;2.37;;;1.27;;
7657;SDS011;8462;53.156;8.220;2023-04-03T01:38:27;3.23;;;1.60;;
7657;SDS011;8462;53.156;8.220;2023-04-03T01:40:54;2.10;;;1.20;;
7657;SDS011;8462;53.156;8.220;2023-04-03T01:43:20;3.60;;;1.27;;
7657;SDS011;8462;53.156;8.220;2023-04-03T01:45:48;8.43;;;1.60;;
7657;SDS011;8462;53.156;8.220;2023-04-03T01:48:16;2.50;;;1.40;;
7657;SDS011;8462;53.156;8.220;2023-04-03T01:50:46;2.47;;;1.33;;
7657;SDS011;8462;53.156;8.220;2023-04-03T01:53:13;2.97;;;1.13;;
7657;SDS011;8462;53.156;8.220;2023-04-03T01:55:41;3.17;;;1.40;;
7657;SDS011;8462;53.156;8.220;2023-04-03T01:58:08;4.83;;;1.47;;
7657;SDS011;8462;53.156;8.220;2023-04-03T02:00:35;5.07;;;1.93;;
7657;SDS011;8462;53.156;8.220;2023-04-03T02:03:02;1.87;;;1.20;;
7657;SDS011;8462;53.156;8.220;2023-04-03T02:05:29;5.13;;;1.50;;
7657;SDS011;8462;53.156;8.220;2023-04-03T02:07:58;3.97;;;1.47;;
7657;SDS011;8462;53.156;8.220;2023-04-03T02:10:25;4.57;;;1.33;;
7657;SDS011;8462;53.156;8.220;2023-04-03T02:12:52;2.80;;;1.33;;
7657;SDS011;8462;53.156;8.220;2023-04-03T02:15:19;2.03;;;1.20;;
7657;SDS011;8462;53.156;8.220;2023-04-03T02:17:46;3.13;;;1.50;;
7657;SDS011;8462;53.156;8.220;2023-04-03T02:20:13;5.73;;;1.70;;
7657;SDS011;8462;53.156;8.220;2023-04-03T02:22:40;4.17;;;1.33;;
7657;SDS011;8462;53.156;8.220;2023-04-03T02:25:08;6.63;;;1.70;;
7657;SDS011;8462;53.156;8.220;2023-04-03T02:27:36;3.03;;;1.33;;
7657;SDS011;8462;53.156;8.220;2023-04-03T02:30:03;4.57;;;1.50;;
7657;SDS011;8462;53.156;8.220;2023-04-03T02:32:31;2.93;;;1.43;;
7657;SDS011;8462;53.156;8.220;2023-04-03T02:34:58;2.20;;;1.40;;
7657;SDS011;8462;53.156;8.220;2023-04-03T02:37:26;2.33;;;1.33;;
7657;SDS011;8462;53.156;8.220;2023-04-03T02:39:53;2.97;;;1.60;;
7657;SDS011;8462;53.156;8.220;2023-04-03T02:42:22;3.47;;;1.77;;
7657;SDS011;8462;53.156;8.220;2023-04-03T02:44:50;2.47;;;1.30;;
7657;SDS011;8462;53.156;8.220;2023-04-03T02:47:17;2.13;;;1.63;;
7657;SDS011;8462;53.156;8.220;2023-04-03T02:49:44;2.47;;;1.27;;
7657;SDS011;8462;53.156;8.220;2023-04-03T02:52:11;3.57;;;1.63;;
7657;SDS011;8462;53.156;8.220;2023-04-03T02:54:38;7.77;;;1.73;;
7657;SDS011;8462;53.156;8.220;2023-04-03T02:57:07;5.13;;;2.17;;
7657;SDS011;8462;53.156;8.220;2023-04-03T02:59:36;4.43;;;1.60;;
7657;SDS011;8462;53.156;8.220;2023-04-03T03:02:05;2.37;;;1.30;;
7657;SDS011;8462;53.156;8.220;2023-04-03T03:04:33;4.63;;;1.50;;
7657;SDS011;8462;53.156;8.220;2023-04-03T03:07:00;1.73;;;1.40;;
7657;SDS011;8462;53.156;8.220;2023-04-03T03:09:27;3.70;;;2.23;;
7657;SDS011;8462;53.156;8.220;2023-04-03T03:11:54;2.87;;;1.80;;
7657;SDS011;8462;53.156;8.220;2023-04-03T03:14:21;4.10;;;1.63;;
7657;SDS011;8462;53.156;8.220;2023-04-03T03:16:49;4.80;;;1.97;;
7657;SDS011;8462;53.156;8.220;2023-04-03T03:19:16;3.50;;;1.77;;
7657;SDS011;8462;53.156;8.220;2023-04-03T03:21:43;2.83;;;1.47;;
7657;SDS011;8462;53.156;8.220;2023-04-03T03:24:10;6.07;;;2.00;;
7657;SDS011;8462;53.156;8.220;2023-04-03T03:26:37;4.00;;;1.50;;
7657;SDS011;8462;53.156;8.220;2023-04-03T03:29:04;4.23;;;1.47;;
7657;SDS011;8462;53.156;8.220;2023-04-03T03:31:31;5.20;;;2.00;;
7657;SDS011;8462;53.156;8.220;2023-04-03T03:33:59;2.50;;;1.67;;
7657;SDS011;8462;53.156;8.220;2023-04-03T03:36:26;5.83;;;1.90;;
7657;SDS011;8462;53.156;8.220;2023-04-03T03:38:53;3.50;;;1.90;;
7657;SDS011;8462;53.156;8.220;2023-04-03T03:41:20;2.90;;;1.80;;
7657;SDS011;8462;53.156;8.220;2023-04-03T03:43:47;2.97;;;1.57;;
7657;SDS011;8462;53.156;8.220;2023-04-03T03:46:15;6.33;;;2.00;;
7657;SDS011;8462;53.156;8.220;2023-04-03T03:48:42;9.03;;;1.73;;
7657;SDS011;8462;53.156;8.220;2023-04-03T03:51:11;3.83;;;1.97;;
7657;SDS011;8462;53.156;8.220;2023-04-03T03:53:38;5.10;;;2.00;;
7657;SDS011;8462;53.156;8.220;2023-04-03T03:56:09;5.43;;;1.87;;
7657;SDS011;8462;53.156;8.220;2023-04-03T03:58:38;4.20;;;2.17;;
7657;SDS011;8462;53.156;8.220;2023-04-03T04:01:06;4.73;;;1.73;;
7657;SDS011;8462;53.156;8.220;2023-04-03T04:03:38;2.10;;;1.90;;
7657;SDS011;8462;53.156;8.220;2023-04-03T04:06:07;6.90;;;1.97;;
7657;SDS011;8462;53.156;8.220;2023-04-03T04:08:36;3.17;;;1.63;;
7657;SDS011;8462;53.156;8.220;2023-04-03T04:11:05;9.37;;;1.73;;
7657;SDS011;8462;53.156;8.220;2023-04-03T04:13:32;1.93;;;1.60;;
7657;SDS011;8462;53.156;8.220;2023-04-03T04:16:00;4.00;;;1.80;;
7657;SDS011;8462;53.156;8.220;2023-04-03T04:18:28;4.73;;;2.03;;
7657;SDS011;8462;53.156;8.220;2023-04-03T04:20:55;4.47;;;2.00;;
7657;SDS011;8462;53.156;8.220;2023-04-03T04:23:22;3.63;;;1.80;;
7657;SDS011;8462;53.156;8.220;2023-04-03T04:25:51;3.50;;;1.73;;
7657;SDS011;8462;53.156;8.220;2023-04-03T04:28:19;6.10;;;2.10;;
7657;SDS011;8462;53.156;8.220;2023-04-03T04:30:49;7.53;;;2.17;;
7657;SDS011;8462;53.156;8.220;2023-04-03T04:33:17;4.57;;;2.10;;
7657;SDS011;8462;53.156;8.220;2023-04-03T04:35:46;8.33;;;2.37;;
7657;SDS011;8462;53.156;8.220;2023-04-03T04:38:14;3.87;;;1.90;;
7657;SDS011;8462;53.156;8.220;2023-04-03T04:40:41;4.53;;;2.10;;
7657;SDS011;8462;53.156;8.220;2023-04-03T04:43:10;6.93;;;2.03;;
7657;SDS011;8462;53.156;8.220;2023-04-03T04:45:40;3.13;;;1.87;;
7657;SDS011;8462;53.156;8.220;2023-04-03T04:48:08;2.33;;;1.87;;
7657;SDS011;8462;53.156;8.220;2023-04-03T04:50:35;4.47;;;2.17;;
7657;SDS011;8462;53.156;8.220;2023-04-03T04:53:02;5.27;;;2.00;;
7657;SDS011;8462;53.156;8.220;2023-04-03T04:55:30;3.67;;;1.63;;
7657;SDS011;8462;53.156;8.220;2023-04-03T04:57:57;3.63;;;1.70;;
7657;SDS011;8462;53.156;8.220;2023-04-03T05:00:26;3.90;;;2.10;;
7657;SDS011;8462;53.156;8.220;2023-04-03T05:02:53;4.63;;;1.90;;
7657;SDS011;8462;53.156;8.220;2023-04-03T05:05:20;5.17;;;2.10;;
7657;SDS011;8462;53.156;8.220;2023-04-03T05:07:47;4.27;;;1.93;;
7657;SDS011;8462;53.156;8.220;2023-04-03T05:10:15;11.10;;;2.20;;
7657;SDS011;8462;53.156;8.220;2023-04-03T05:12:44;5.67;;;2.17;;
7657;SDS011;8462;53.156;8.220;2023-04-03T05:15:12;8.20;;;3.13;;
7657;SDS011;8462;53.156;8.220;2023-04-03T05:17:40;8.50;;;3.70;;
7657;SDS011;8462;53.156;8.220;2023-04-03T05:20:11;7.27;;;2.63;;
7657;SDS011;8462;53.156;8.220;2023-04-03T05:22:39;7.70;;;2.90;;
7657;SDS011;8462;53.156;8.220;2023-04-03T05:25:08;7.13;;;3.13;;
7657;SDS011;8462;53.156;8.220;2023-04-03T05:27:36;7.60;;;2.90;;
7657;SDS011;8462;53.156;8.220;2023-04-03T05:30:03;7.07;;;2.90;;
7657;SDS011;8462;53.156;8.220;2023-04-03T05:32:35;4.23;;;2.17;;
7657;SDS011;8462;53.156;8.220;2023-04-03T05:35:13;3.97;;;2.07;;
7657;SDS011;8462;53.156;8.220;2023-04-03T05:37:41;4.03;;;2.13;;
7657;SDS011;8462;53.156;8.220;2023-04-03T05:40:08;4.67;;;2.07;;
7657;SDS011;8462;53.156;8.220;2023-04-03T05:42:39;3.60;;;2.10;;
7657;SDS011;8462;53.156;8.220;2023-04-03T05:45:06;5.23;;;2.10;;
7657;SDS011;8462;53.156;8.220;2023-04-03T05:47:33;5.33;;;2.30;;
7657;SDS011;8462;53.156;8.220;2023-04-03T05:50:01;4.87;;;2.33;;
7657;SDS011;8462;53.156;8.220;2023-04-03T05:52:30;7.23;;;4.07;;
7657;SDS011;8462;53.156;8.220;2023-04-03T05:55:00;7.07;;;3.83;;
7657;SDS011;8462;53.156;8.220;2023-04-03T05:57:29;7.70;;;2.70;;
7657;SDS011;8462;53.156;8.220;2023-04-03T05:59:56;4.33;;;2.10;;
7657;SDS011;8462;53.156;8.220;2023-04-03T06:02:24;6.97;;;2.83;;
7657;SDS011;8462;53.156;8.220;2023-04-03T06:04:52;2.97;;;2.30;;
7657;SDS011;8462;53.156;8.220;2023-04-03T06:07:19;4.57;;;2.70;;
7657;SDS011;8462;53.156;8.220;2023-04-03T06:09:50;4.00;;;2.27;;
7657;SDS011;8462;53.156;8.220;2023-04-03T06:12:18;6.53;;;2.10;;
7657;SDS011;8462;53.156;8.220;2023-04-03T06:14:46;7.23;;;2.30;;
7657;SDS011;8462;53.156;8.220;2023-04-03T06:17:13;4.00;;;2.10;;
7657;SDS011;8462;53.156;8.220;2023-04-03T06:19:40;4.10;;;2.03;;
7657;SDS011;8462;53.156;8.220;2023-04-03T06:22:08;3.47;;;2.17;;
7657;SDS011;8462;53.156;8.220;2023-04-03T06:24:36;4.73;;;2.20;;
7657;SDS011;8462;53.156;8.220;2023-04-03T06:27:07;3.97;;;2.27;;
7657;SDS011;8462;53.156;8.220;2023-04-03T06:29:35;4.80;;;2.20;;
7657;SDS011;8462;53.156;8.220;2023-04-03T06:32:03;3.87;;;2.17;;
7657;SDS011;8462;53.156;8.220;2023-04-03T06:34:30;6.13;;;2.70;;
7657;SDS011;8462;53.156;8.220;2023-04-03T06:36:57;5.90;;;2.60;;
7657;SDS011;8462;53.156;8.220;2023-04-03T06:39:24;6.23;;;2.20;;
7657;SDS011;8462;53.156;8.220;2023-04-03T06:41:52;4.50;;;3.67;;
7657;SDS011;8462;53.156;8.220;2023-04-03T06:44:29;7.17;;;2.47;;
7657;SDS011;8462;53.156;8.220;2023-04-03T06:46:56;3.33;;;2.10;;
7657;SDS011;8462;53.156;8.220;2023-04-03T06:49:23;3.90;;;2.30;;
7657;SDS011;8462;53.156;8.220;2023-04-03T06:51:50;5.30;;;3.07;;
7657;SDS011;8462;53.156;8.220;2023-04-03T06:54:17;3.23;;;2.03;;
7657;SDS011;8462;53.156;8.220;2023-04-03T06:56:45;5.73;;;2.40;;
7657;SDS011;8462;53.156;8.220;2023-04-03T06:59:12;6.23;;;2.40;;
7657;SDS011;8462;53.156;8.220;2023-04-03T07:01:41;7.00;;;2.37;;
7657;SDS011;8462;53.156;8.220;2023-04-03T07:04:08;3.50;;;2.10;;
7657;SDS011;8462;53.156;8.220;2023-04-03T07:06:35;5.73;;;3.00;;
7657;SDS011;8462;53.156;8.220;2023-04-03T07:09:02;7.60;;;2.73;;
7657;SDS011;8462;53.156;8.220;2023-04-03T07:11:29;5.43;;;2.57;;
7657;SDS011;8462;53.156;8.220;2023-04-03T07:13:56;5.87;;;2.47;;
7657;SDS011;8462;53.156;8.220;2023-04-03T07:16:23;4.17;;;2.30;;
7657;SDS011;8462;53.156;8.220;2023-04-03T07:18:51;3.97;;;2.00;;
7657;SDS011;8462;53.156;8.220;2023-04-03T07:21:18;4.27;;;2.27;;
7657;SDS011;8462;53.156;8.220;2023-04-03T07:23:46;3.23;;;2.03;;
7657;SDS011;8462;53.156;8.220;2023-04-03T07:26:12;6.80;;;2.33;;
7657;SDS011;8462;53.156;8.220;2023-04-03T07:28:39;4.87;;;2.63;;
7657;SDS011;8462;53.156;8.220;2023-04-03T07:31:07;4.93;;;3.27;;
7657;SDS011;8462;53.156;8.220;2023-04-03T07:33:38;5.70;;;2.30;;
7657;SDS011;8462;53.156;8.220;2023-04-03T07:36:07;6.67;;;2.13;;
7657;SDS011;8462;53.156;8.220;2023-04-03T07:38:35;6.03;;;2.57;;
7657;SDS011;8462;53.156;8.220;2023-04-03T07:41:03;5.03;;;2.47;;
7657;SDS011;8462;53.156;8.220;2023-04-03T07:43:30;3.27;;;1.80;;
7657;SDS011;8462;53.156;8.220;2023-04-03T07:45:57;4.60;;;1.67;;
7657;SDS011;8462;53.156;8.220;2023-04-03T07:48:26;7.20;;;2.33;;
7657;SDS011;8462;53.156;8.220;2023-04-03T07:50:53;4.60;;;1.80;;
7657;SDS011;8462;53.156;8.220;2023-04-03T07:53:21;7.27;;;2.00;;
7657;SDS011;8462;53.156;8.220;2023-04-03T07:55:48;4.10;;;1.63;;
7657;SDS011;8462;53.156;8.220;2023-04-03T07:58:20;4.23;;;1.97;;
7657;SDS011;8462;53.156;8.220;2023-04-03T08:00:47;3.67;;;1.87;;
7657;SDS011;8462;53.156;8.220;2023-04-03T08:03:14;5.10;;;1.70;;
7657;SDS011;8462;53.156;8.220;2023-04-03T08:05:43;1.37;;;1.27;;
7657;SDS011;8462;53.156;8.220;2023-04-03T08:08:12;6.97;;;2.07;;
7657;SDS011;8462;53.156;8.220;2023-04-03T08:10:42;2.37;;;1.67;;
7657;SDS011;8462;53.156;8.220;2023-04-03T08:13:11;4.33;;;1.87;;
7657;SDS011;8462;53.156;8.220;2023-04-03T08:15:37;4.40;;;2.47;;
7657;SDS011;8462;53.156;8.220;2023-04-03T08:18:04;3.50;;;1.70;;
7657;SDS011;8462;53.156;8.220;2023-04-03T08:20:31;3.73;;;2.20;;
7657;SDS011;8462;53.156;8.220;2023-04-03T08:22:58;5.17;;;1.80;;
7657;SDS011;8462;53.156;8.220;2023-04-03T08:25:25;5.67;;;1.93;;
7657;SDS011;8462;53.156;8.220;2023-04-03T08:27:56;4.67;;;1.73;;
7657;SDS011;8462;53.156;8.220;2023-04-03T08:30:22;1.90;;;1.50;;
7657;SDS011;8462;53.156;8.220;2023-04-03T08:32:50;2.77;;;1.67;;
7657;SDS011;8462;53.156;8.220;2023-04-03T08:35:18;3.27;;;2.17;;
7657;SDS011;8462;53.156;8.220;2023-04-03T08:37:45;3.73;;;2.00;;
7657;SDS011;8462;53.156;8.220;2023-04-03T08:40:13;2.13;;;1.40;;
7657;SDS011;8462;53.156;8.220;2023-04-03T08:42:47;2.47;;;1.63;;
7657;SDS011;8462;53.156;8.220;2023-04-03T08:45:22;2.50;;;1.43;;
7657;SDS011;8462;53.156;8.220;2023-04-03T08:47:58;4.27;;;1.80;;
7657;SDS011;8462;53.156;8.220;2023-04-03T08:50:31;3.50;;;1.80;;
7657;SDS011;8462;53.156;8.220;2023-04-03T08:53:04;2.37;;;1.30;;
7657;SDS011;8462;53.156;8.220;2023-04-03T08:55:37;5.07;;;1.40;;
7657;SDS011;8462;53.156;8.220;2023-04-03T08:58:10;2.27;;;1.10;;
7657;SDS011;8462;53.156;8.220;2023-04-03T09:00:43;1.90;;;1.03;;
7657;SDS011;8462;53.156;8.220;2023-04-03T09:03:12;3.17;;;1.10;;
7657;SDS011;8462;53.156;8.220;2023-04-03T09:05:42;2.53;;;1.10;;
7657;SDS011;8462;53.156;8.220;2023-04-03T09:08:14;4.23;;;1.40;;
7657;SDS011;8462;53.156;8.220;2023-04-03T09:10:49;2.37;;;1.20;;
7657;SDS011;8462;53.156;8.220;2023-04-03T09:13:21;2.50;;;1.63;;
7657;SDS011;8462;53.156;8.220;2023-04-03T09:15:54;3.40;;;1.23;;
7657;SDS011;8462;53.156;8.220;2023-04-03T09:18:24;5.10;;;2.00;;
7657;SDS011;8462;53.156;8.220;2023-04-03T09:20:58;2.80;;;1.43;;
7657;SDS011;8462;53.156;8.220;2023-04-03T09:23:32;1.13;;;1.00;;
7657;SDS011;8462;53.156;8.220;2023-04-03T09:26:05;2.53;;;1.30;;
7657;SDS011;8462;53.156;8.220;2023-04-03T09:28:37;1.73;;;1.07;;
7657;SDS011;8462;53.156;8.220;2023-04-03T09:31:12;2.07;;;1.30;;
7657;SDS011;8462;53.156;8.220;2023-04-03T09:33:45;4.27;;;1.07;;
7657;SDS011;8462;53.156;8.220;2023-04-03T09:36:14;3.70;;;1.20;;
7657;SDS011;8462;53.156;8.220;2023-04-03T09:39:08;1.20;;;0.80;;
7657;SDS011;8462;53.156;8.220;2023-04-03T09:41:37;2.47;;;1.00;;
7657;SDS011;8462;53.156;8.220;2023-04-03T09:44:17;1.00;;;0.90;;
7657;SDS011;8462;53.156;8.220;2023-04-03T09:46:48;3.97;;;1.20;;
7657;SDS011;8462;53.156;8.220;2023-04-03T09:49:16;1.83;;;1.10;;
7657;SDS011;8462;53.156;8.220;2023-04-03T09:51:45;3.80;;;1.37;;
7657;SDS011;8462;53.156;8.220;2023-04-03T09:54:25;1.43;;;0.90;;
7657;SDS011;8462;53.156;8.220;2023-04-03T09:56:57;2.10;;;1.00;;
7657;SDS011;8462;53.156;8.220;2023-04-03T09:59:29;3.27;;;1.20;;
7657;SDS011;8462;53.156;8.220;2023-04-03T10:01:58;4.00;;;1.37;;
7657;SDS011;8462;53.156;8.220;2023-04-03T10:04:36;1.80;;;1.20;;
7657;SDS011;8462;53.156;8.220;2023-04-03T10:07:25;3.37;;;1.27;;
7657;SDS011;8462;53.156;8.220;2023-04-03T10:09:54;1.13;;;0.97;;
7657;SDS011;8462;53.156;8.220;2023-04-03T10:12:22;1.93;;;1.10;;
7657;SDS011;8462;53.156;8.220;2023-04-03T10:14:56;4.97;;;1.30;;
7657;SDS011;8462;53.156;8.220;2023-04-03T10:17:37;3.63;;;1.30;;
7657;SDS011;8462;53.156;8.220;2023-04-03T10:20:21;3.20;;;1.53;;
7657;SDS011;8462;53.156;8.220;2023-04-03T10:22:58;2.57;;;1.20;;
7657;SDS011;8462;53.156;8.220;2023-04-03T10:25:37;3.77;;;1.30;;
7657;SDS011;8462;53.156;8.220;2023-04-03T10:28:09;1.10;;;0.80;;
7657;SDS011;8462;53.156;8.220;2023-04-03T10:30:46;1.20;;;0.97;;
7657;SDS011;8462;53.156;8.220;2023-04-03T10:36:17;1.43;;;1.00;;
7657;SDS011;8462;53.156;8.220;2023-04-03T10:38:54;1.30;;;0.80;;
7657;SDS011;8462;53.156;8.220;2023-04-03T10:41:31;1.37;;;0.70;;
7657;SDS011;8462;53.156;8.220;2023-04-03T10:44:09;1.83;;;1.00;;
7657;SDS011;8462;53.156;8.220;2023-04-03T10:46:43;2.03;;;1.20;;
7657;SDS011;8462;53.156;8.220;2023-04-03T10:49:17;1.83;;;1.27;;
7657;SDS011;8462;53.156;8.220;2023-04-03T10:51:56;0.93;;;0.77;;
7657;SDS011;8462;53.156;8.220;2023-04-03T10:54:29;1.83;;;1.00;;
7657;SDS011;8462;53.156;8.220;2023-04-03T10:57:02;1.13;;;0.90;;
7657;SDS011;8462;53.156;8.220;2023-04-03T10:59:32;2.93;;;1.17;;
7657;SDS011;8462;53.156;8.220;2023-04-03T11:02:04;1.47;;;1.00;;
7657;SDS011;8462;53.156;8.220;2023-04-03T11:04:37;2.00;;;1.10;;
7657;SDS011;8462;53.156;8.220;2023-04-03T11:07:07;1.50;;;0.83;;
7657;SDS011;8462;53.156;8.220;2023-04-03T11:09:41;1.33;;;0.90;;
7657;SDS011;8462;53.156;8.220;2023-04-03T11:12:14;2.13;;;1.20;;
7657;SDS011;8462;53.156;8.220;2023-04-03T11:14:47;1.37;;;0.80;;
7657;SDS011;8462;53.156;8.220;2023-04-03T11:17:19;1.63;;;0.63;;
7657;SDS011;8462;53.156;8.220;2023-04-03T11:19:57;0.73;;;0.57;;
7657;SDS011;8462;53.156;8.220;2023-04-03T11:22:32;3.37;;;0.90;;
7657;SDS011;8462;53.156;8.220;2023-04-03T11:25:05;1.53;;;1.00;;
7657;SDS011;8462;53.156;8.220;2023-04-03T11:27:46;3.17;;;1.07;;
7657;SDS011;8462;53.156;8.220;2023-04-03T11:30:19;0.73;;;0.70;;
7657;SDS011;8462;53.156;8.220;2023-04-03T11:32:52;2.50;;;0.70;;
7657;SDS011;8462;53.156;8.220;2023-04-03T11:35:28;2.37;;;0.70;;
7657;SDS011;8462;53.156;8.220;2023-04-03T11:37:56;2.00;;;1.00;;
7657;SDS011;8462;53.156;8.220;2023-04-03T11:40:28;2.93;;;0.80;;
7657;SDS011;8462;53.156;8.220;2023-04-03T11:43:02;3.87;;;1.17;;
7657;SDS011;8462;53.156;8.220;2023-04-03T11:45:34;2.33;;;0.80;;
7657;SDS011;8462;53.156;8.220;2023-04-03T11:48:03;1.40;;;0.80;;
7657;SDS011;8462;53.156;8.220;2023-04-03T11:50:41;1.70;;;0.60;;
7657;SDS011;8462;53.156;8.220;2023-04-03T11:53:26;3.93;;;1.00;;
7657;SDS011;8462;53.156;8.220;2023-04-03T11:56:04;1.33;;;0.70;;
7657;SDS011;8462;53.156;8.220;2023-04-03T12:01:50;2.47;;;1.60;;
7657;SDS011;8462;53.156;8.220;2023-04-03T12:04:19;3.70;;;1.13;;
7657;SDS011;8462;53.156;8.220;2023-04-03T12:06:52;0.90;;;0.63;;
7657;SDS011;8462;53.156;8.220;2023-04-03T12:09:26;1.50;;;0.97;;
7657;SDS011;8462;53.156;8.220;2023-04-03T12:12:39;2.50;;;0.73;;
7657;SDS011;8462;53.156;8.220;2023-04-03T12:18:31;1.13;;;0.60;;
7657;SDS011;8462;53.156;8.220;2023-04-03T12:21:16;2.20;;;0.53;;
7657;SDS011;8462;53.156;8.220;2023-04-03T12:24:00;4.30;;;1.10;;
7657;SDS011;8462;53.156;8.220;2023-04-03T12:26:30;1.57;;;0.70;;
7657;SDS011;8462;53.156;8.220;2023-04-03T12:29:03;1.77;;;1.00;;
7657;SDS011;8462;53.156;8.220;2023-04-03T12:31:42;2.87;;;0.90;;
7657;SDS011;8462;53.156;8.220;2023-04-03T12:34:26;0.80;;;0.60;;
7657;SDS011;8462;53.156;8.220;2023-04-03T12:37:15;1.93;;;1.00;;
7657;SDS011;8462;53.156;8.220;2023-04-03T12:39:55;3.47;;;1.63;;
7657;SDS011;8462;53.156;8.220;2023-04-03T12:42:38;2.13;;;0.87;;
7657;SDS011;8462;53.156;8.220;2023-04-03T12:45:24;4.60;;;0.83;;
7657;SDS011;8462;53.156;8.220;2023-04-03T12:47:53;2.10;;;0.70;;
7657;SDS011;8462;53.156;8.220;2023-04-03T12:50:22;0.83;;;0.60;;
7657;SDS011;8462;53.156;8.220;2023-04-03T12:52:56;2.57;;;1.00;;
7657;SDS011;8462;53.156;8.220;2023-04-03T12:55:25;1.33;;;0.83;;
7657;SDS011;8462;53.156;8.220;2023-04-03T12:57:52;1.03;;;0.70;;
7657;SDS011;8462;53.156;8.220;2023-04-03T13:00:31;1.00;;;0.90;;
7657;SDS011;8462;53.156;8.220;2023-04-03T13:03:00;0.87;;;0.63;;
7657;SDS011;8462;53.156;8.220;2023-04-03T13:05:28;2.37;;;1.00;;
7657;SDS011;8462;53.156;8.220;2023-04-03T13:07:57;3.13;;;1.20;;
7657;SDS011;8462;53.156;8.220;2023-04-03T13:10:27;1.17;;;1.03;;
7657;SDS011;8462;53.156;8.220;2023-04-03T13:12:55;3.27;;;1.00;;
7657;SDS011;8462;53.156;8.220;2023-04-03T13:15:24;2.60;;;1.30;;
7657;SDS011;8462;53.156;8.220;2023-04-03T13:17:53;2.07;;;1.00;;
7657;SDS011;8462;53.156;8.220;2023-04-03T13:20:24;2.60;;;1.00;;
7657;SDS011;8462;53.156;8.220;2023-04-03T13:22:57;1.87;;;1.30;;
7657;SDS011;8462;53.156;8.220;2023-04-03T13:25:26;4.23;;;1.20;;
7657;SDS011;8462;53.156;8.220;2023-04-03T13:27:55;2.67;;;1.23;;
7657;SDS011;8462;53.156;8.220;2023-04-03T13:30:26;6.23;;;1.70;;
7657;SDS011;8462;53.156;8.220;2023-04-03T13:32:56;3.60;;;1.50;;
7657;SDS011;8462;53.156;8.220;2023-04-03T13:35:26;1.73;;;1.00;;
7657;SDS011;8462;53.156;8.220;2023-04-03T13:38:03;1.30;;;0.73;;
7657;SDS011;8462;53.156;8.220;2023-04-03T13:40:46;4.20;;;1.07;;
7657;SDS011;8462;53.156;8.220;2023-04-03T13:43:17;1.07;;;0.90;;
7657;SDS011;8462;53.156;8.220;2023-04-03T13:45:54;2.17;;;1.30;;
7657;SDS011;8462;53.156;8.220;2023-04-03T13:48:24;1.63;;;0.83;;
7657;SDS011;8462;53.156;8.220;2023-04-03T13:50:57;0.70;;;0.60;;
7657;SDS011;8462;53.156;8.220;2023-04-03T13:53:26;2.40;;;0.70;;
7657;SDS011;8462;53.156;8.220;2023-04-03T13:55:57;0.47;;;0.47;;
7657;SDS011;8462;53.156;8.220;2023-04-03T13:58:29;1.90;;;1.03;;
7657;SDS011;8462;53.156;8.220;2023-04-03T14:00:59;2.00;;;1.10;;
7657;SDS011;8462;53.156;8.220;2023-04-03T14:03:41;1.63;;;1.10;;
7657;SDS011;8462;53.156;8.220;2023-04-03T14:06:11;4.43;;;0.90;;
7657;SDS011;8462;53.156;8.220;2023-04-03T14:08:39;3.17;;;0.87;;
7657;SDS011;8462;53.156;8.220;2023-04-03T14:11:08;2.23;;;1.20;;
7657;SDS011;8462;53.156;8.220;2023-04-03T14:13:39;1.57;;;1.00;;
7657;SDS011;8462;53.156;8.220;2023-04-03T14:16:06;1.67;;;1.00;;
7657;SDS011;8462;53.156;8.220;2023-04-03T14:18:35;1.53;;;1.10;;
7657;SDS011;8462;53.156;8.220;2023-04-03T14:21:02;1.27;;;0.90;;
7657;SDS011;8462;53.156;8.220;2023-04-03T14:23:29;2.00;;;1.10;;
7657;SDS011;8462;53.156;8.220;2023-04-03T14:25:56;3.23;;;1.10;;
7657;SDS011;8462;53.156;8.220;2023-04-03T14:28:25;2.87;;;1.20;;
7657;SDS011;8462;53.156;8.220;2023-04-03T14:30:52;4.63;;;1.20;;
7657;SDS011;8462;53.156;8.220;2023-04-03T14:33:20;1.63;;;1.00;;
7657;SDS011;8462;53.156;8.220;2023-04-03T14:35:50;4.67;;;1.13;;
7657;SDS011;8462;53.156;8.220;2023-04-03T14:38:21;2.87;;;1.20;;
7657;SDS011;8462;53.156;8.220;2023-04-03T14:40:53;2.90;;;1.33;;
7657;SDS011;8462;53.156;8.220;2023-04-03T14:43:21;3.77;;;1.63;;
7657;SDS011;8462;53.156;8.220;2023-04-03T14:45:49;2.67;;;1.40;;
7657;SDS011;8462;53.156;8.220;2023-04-03T14:48:18;3.47;;;1.90;;
7657;SDS011;8462;53.156;8.220;2023-04-03T14:50:46;2.53;;;1.30;;
7657;SDS011;8462;53.156;8.220;2023-04-03T14:53:15;3.63;;;1.30;;
7657;SDS011;8462;53.156;8.220;2023-04-03T14:55:44;1.93;;;1.40;;
7657;SDS011;8462;53.156;8.220;2023-04-03T14:58:12;1.20;;;1.10;;
7657;SDS011;8462;53.156;8.220;2023-04-03T15:00:41;3.40;;;1.33;;
7657;SDS011;8462;53.156;8.220;2023-04-03T15:03:12;2.50;;;1.17;;
7657;SDS011;8462;53.156;8.220;2023-04-03T15:05:41;5.80;;;1.30;;
7657;SDS011;8462;53.156;8.220;2023-04-03T15:08:13;1.97;;;1.10;;
7657;SDS011;8462;53.156;8.220;2023-04-03T15:10:47;1.60;;;1.03;;
7657;SDS011;8462;53.156;8.220;2023-04-03T15:13:15;1.63;;;1.10;;
7657;SDS011;8462;53.156;8.220;2023-04-03T15:15:42;0.90;;;0.80;;
7657;SDS011;8462;53.156;8.220;2023-04-03T15:18:14;1.50;;;0.73;;
7657;SDS011;8462;53.156;8.220;2023-04-03T15:20:45;2.77;;;1.17;;
7657;SDS011;8462;53.156;8.220;2023-04-03T15:23:13;4.07;;;1.20;;
7657;SDS011;8462;53.156;8.220;2023-04-03T15:25:44;5.10;;;1.00;;
7657;SDS011;8462;53.156;8.220;2023-04-03T15:28:17;4.00;;;1.20;;
7657;SDS011;8462;53.156;8.220;2023-04-03T15:30:45;3.03;;;0.77;;
7657;SDS011;8462;53.156;8.220;2023-04-03T15:33:12;3.90;;;2.27;;
7657;SDS011;8462;53.156;8.220;2023-04-03T15:35:40;2.17;;;0.90;;
7657;SDS011;8462;53.156;8.220;2023-04-03T15:38:07;3.63;;;0.93;;
7657;SDS011;8462;53.156;8.220;2023-04-03T15:40:36;2.03;;;0.90;;
7657;SDS011;8462;53.156;8.220;2023-04-03T15:43:04;2.40;;;0.93;;
7657;SDS011;8462;53.156;8.220;2023-04-03T15:45:32;2.80;;;1.10;;